createdAt,value
2023-02-13T00:00:46.827Z,64.53
2023-02-13T00:03:14.104Z,65.23
2023-02-13T00:05:41.266Z,62.83
2023-02-13T00:08:08.375Z,63.40
2023-02-13T00:10:35.600Z,61.73
2023-02-13T00:13:02.698Z,61.20
2023-02-13T00:15:29.739Z,63.03
2023-02-13T00:17:56.763Z,64.80
2023-02-13T00:20:24.016Z,64.43
2023-02-13T00:22:51.126Z,66.37
2023-02-13T00:25:18.291Z,65.73
2023-02-13T00:27:45.446Z,67.47
2023-02-13T00:30:13.160Z,66.03
2023-02-13T00:32:40.138Z,62.60
2023-02-13T00:35:07.390Z,63.73
2023-02-13T00:37:34.888Z,66.97
2023-02-13T00:40:01.929Z,69.33
2023-02-13T00:42:28.965Z,66.00
2023-02-13T00:44:56.107Z,68.53
2023-02-13T00:47:23.877Z,69.27
2023-02-13T00:49:50.923Z,66.03
2023-02-13T00:52:18.130Z,68.60
2023-02-13T00:54:46.751Z,66.57
2023-02-13T00:57:13.815Z,65.93
2023-02-13T00:59:42.724Z,67.50
2023-02-13T01:02:09.788Z,64.20
2023-02-13T01:04:36.926Z,61.77
2023-02-13T01:07:04.139Z,65.17
2023-02-13T01:09:31.360Z,63.23
2023-02-13T01:11:58.426Z,64.00
2023-02-13T01:14:26.061Z,65.60
2023-02-13T01:16:53.026Z,65.43
2023-02-13T01:19:20.115Z,66.70
2023-02-13T01:21:47.459Z,66.53
2023-02-13T01:24:14.474Z,69.23
2023-02-13T01:26:41.946Z,68.87
2023-02-13T01:29:12.455Z,71.63
2023-02-13T01:31:40.375Z,67.10
2023-02-13T01:34:07.574Z,65.07
2023-02-13T01:36:34.810Z,66.33
2023-02-13T01:39:01.961Z,67.53
2023-02-13T01:41:30.541Z,65.53
2023-02-13T01:44:00.033Z,65.33
2023-02-13T01:46:40.562Z,64.77
2023-02-13T01:49:21.075Z,67.73
2023-02-13T01:51:50.815Z,71.03
2023-02-13T01:54:31.354Z,71.97
2023-02-13T01:57:08.290Z,70.97
2023-02-13T01:59:43.159Z,73.00
2023-02-13T02:02:11.360Z,72.33
2023-02-13T02:04:42.138Z,76.07
2023-02-13T02:07:20.188Z,77.53
2023-02-13T02:09:51.729Z,78.30
2023-02-13T02:12:31.305Z,79.53
2023-02-13T02:15:00.454Z,79.50
2023-02-13T02:17:31.506Z,78.90
2023-02-13T02:20:37.494Z,77.43
2023-02-13T02:23:23.263Z,78.63
2023-02-13T02:26:29.535Z,74.90
2023-02-13T02:29:28.853Z,71.27
2023-02-13T02:32:10.796Z,69.93
2023-02-13T02:34:45.583Z,72.20
2023-02-13T02:37:46.170Z,73.70
2023-02-13T02:40:16.299Z,70.50
2023-02-13T02:42:52.718Z,72.60
2023-02-13T02:45:29.729Z,76.63
2023-02-13T02:48:38.828Z,78.53
2023-02-13T02:51:32.903Z,77.57
2023-02-13T02:54:33.653Z,74.00
2023-02-13T02:57:15.598Z,73.90
2023-02-13T03:00:05.990Z,73.13
2023-02-13T03:02:52.799Z,73.23
2023-02-13T03:05:47.682Z,72.07
2023-02-13T03:08:15.385Z,73.73
2023-02-13T03:11:01.715Z,71.63
2023-02-13T03:13:47.585Z,68.80
2023-02-13T03:16:42.883Z,69.60
2023-02-13T03:20:00.732Z,67.67
2023-02-13T03:22:42.767Z,65.33
2023-02-13T03:25:30.444Z,66.77
2023-02-13T03:28:18.156Z,67.47
2023-02-13T03:31:00.946Z,71.60
2023-02-13T03:33:32.813Z,72.60
2023-02-13T03:36:31.721Z,73.97
2023-02-13T03:39:12.820Z,72.67
2023-02-13T03:42:07.583Z,70.00
2023-02-13T03:45:19.876Z,68.87
2023-02-13T03:47:51.741Z,68.10
2023-02-13T03:50:19.949Z,69.43
2023-02-13T03:52:47.084Z,72.57
2023-02-13T03:55:37.490Z,74.20
2023-02-13T03:58:32.768Z,77.57
2023-02-13T04:01:02.917Z,75.57
2023-02-13T04:03:45.050Z,76.83
2023-02-13T04:06:16.339Z,82.77
2023-02-13T04:08:43.750Z,80.40
2023-02-13T04:11:21.792Z,81.73
2023-02-13T04:14:00.551Z,84.40
2023-02-13T04:16:38.956Z,80.10
2023-02-13T04:19:08.048Z,79.63
2023-02-13T04:21:37.182Z,77.17
2023-02-13T04:24:04.517Z,81.10
2023-02-13T04:26:40.502Z,81.13
2023-02-13T04:29:08.542Z,79.93
2023-02-13T04:31:36.038Z,79.07
2023-02-13T04:34:03.479Z,81.10
2023-02-13T04:36:30.954Z,80.83
2023-02-13T04:38:58.331Z,81.00
2023-02-13T04:41:25.332Z,81.20
2023-02-13T04:43:52.618Z,79.37
2023-02-13T04:46:19.804Z,78.80
2023-02-13T04:48:46.912Z,79.90
2023-02-13T04:51:15.436Z,87.47
2023-02-13T04:53:42.554Z,87.00
2023-02-13T04:56:09.995Z,92.53
2023-02-13T04:58:37.271Z,87.67
2023-02-13T05:01:12.668Z,86.37
2023-02-13T05:03:39.700Z,82.47
2023-02-13T05:06:07.020Z,76.10
2023-02-13T05:08:34.790Z,78.90
2023-02-13T05:11:01.992Z,75.93
2023-02-13T05:13:29.339Z,70.47
2023-02-13T05:15:56.392Z,70.87
2023-02-13T05:18:23.584Z,65.00
2023-02-13T05:21:10.686Z,62.80
2023-02-13T05:23:38.040Z,61.30
2023-02-13T05:26:05.126Z,58.83
2023-02-13T05:28:50.731Z,58.57
2023-02-13T05:31:17.931Z,57.80
2023-02-13T05:33:45.241Z,57.30
2023-02-13T05:36:12.392Z,56.40
2023-02-13T05:38:41.311Z,57.87
2023-02-13T05:41:08.631Z,59.03
2023-02-13T05:43:35.718Z,55.10
2023-02-13T05:46:07.886Z,59.40
2023-02-13T05:48:35.684Z,61.67
2023-02-13T05:51:02.811Z,61.63
2023-02-13T05:53:29.987Z,59.87
2023-02-13T05:55:57.513Z,58.03
2023-02-13T05:58:24.688Z,58.57
2023-02-13T06:00:56.249Z,59.00
2023-02-13T06:03:24.568Z,57.67
2023-02-13T06:05:52.598Z,57.97
2023-02-13T06:08:19.856Z,57.37
2023-02-13T06:10:50.972Z,56.60
2023-02-13T06:13:18.890Z,53.57
2023-02-13T06:15:46.177Z,55.73
2023-02-13T06:18:13.317Z,52.90
2023-02-13T06:20:40.389Z,49.57
2023-02-13T06:23:07.410Z,53.20
2023-02-13T06:25:37.517Z,51.90
2023-02-13T06:28:05.482Z,50.33
2023-02-13T06:30:33.198Z,49.40
2023-02-13T06:33:00.625Z,50.03
2023-02-13T06:35:27.956Z,49.50
2023-02-13T06:37:55.128Z,48.53
2023-02-13T06:40:22.206Z,48.03
2023-02-13T06:42:49.250Z,48.97
2023-02-13T06:45:16.560Z,47.67
2023-02-13T06:47:45.365Z,48.57
2023-02-13T06:50:13.978Z,47.77
2023-02-13T06:52:49.430Z,47.70
2023-02-13T06:55:17.290Z,47.37
2023-02-13T06:57:45.159Z,48.63
2023-02-13T07:00:14.280Z,45.40
2023-02-13T07:02:42.285Z,46.90
2023-02-13T07:05:09.910Z,46.23
2023-02-13T07:07:38.471Z,44.53
2023-02-13T07:10:07.559Z,44.97
2023-02-13T07:12:36.710Z,44.57
2023-02-13T07:15:08.179Z,44.63
2023-02-13T07:17:35.334Z,43.23
2023-02-13T07:20:02.851Z,45.97
2023-02-13T07:22:32.531Z,43.57
2023-02-13T07:25:00.528Z,43.60
2023-02-13T07:27:31.089Z,44.33
2023-02-13T07:29:58.488Z,43.27
2023-02-13T07:32:26.055Z,44.33
2023-02-13T07:35:01.591Z,45.43
2023-02-13T07:37:31.240Z,45.37
2023-02-13T07:39:58.474Z,44.93
2023-02-13T07:42:25.663Z,44.40
2023-02-13T07:44:52.693Z,44.40
2023-02-13T07:47:20.402Z,41.93
2023-02-13T07:49:47.667Z,39.57
2023-02-13T07:52:14.742Z,42.17
2023-02-13T07:54:47.709Z,37.80
2023-02-13T07:57:16.091Z,39.23
2023-02-13T07:59:43.504Z,39.47
2023-02-13T08:02:15.431Z,40.13
2023-02-13T08:04:46.518Z,39.53
2023-02-13T08:07:18.373Z,36.80
2023-02-13T08:10:04.777Z,36.30
2023-02-13T08:12:35.014Z,34.30
2023-02-13T08:15:02.316Z,35.07
2023-02-13T08:17:29.278Z,35.93
2023-02-13T08:19:56.333Z,33.47
2023-02-13T08:22:23.493Z,34.43
2023-02-13T08:24:50.543Z,35.17
2023-02-13T08:27:17.752Z,36.00
2023-02-13T08:29:44.989Z,36.43
2023-02-13T08:32:12.647Z,33.50
2023-02-13T08:34:39.822Z,33.70
2023-02-13T08:37:06.914Z,33.57
2023-02-13T08:39:34.075Z,34.77
2023-02-13T08:42:01.154Z,33.27
2023-02-13T08:44:28.247Z,31.50
2023-02-13T08:46:55.935Z,31.90
2023-02-13T08:49:23.618Z,31.07
2023-02-13T08:51:51.029Z,31.13
2023-02-13T08:54:18.127Z,27.73
2023-02-13T08:56:45.169Z,28.53
2023-02-13T08:59:12.336Z,27.53
2023-02-13T09:01:39.883Z,27.40
2023-02-13T09:04:06.930Z,26.57
2023-02-13T09:06:33.954Z,26.47
2023-02-13T09:09:01.008Z,26.97
2023-02-13T09:11:28.122Z,26.00
2023-02-13T09:13:55.555Z,26.93
2023-02-13T09:16:22.959Z,27.53
2023-02-13T09:18:51.160Z,26.20
2023-02-13T09:21:20.316Z,26.07
2023-02-13T09:23:47.425Z,25.13
2023-02-13T09:26:15.958Z,26.50
2023-02-13T09:28:43.779Z,27.63
2023-02-13T09:31:12.563Z,25.23
2023-02-13T09:33:39.850Z,26.50
2023-02-13T09:36:09.060Z,26.20
2023-02-13T09:38:36.096Z,28.77
2023-02-13T09:41:08.501Z,24.63
2023-02-13T09:43:41.582Z,25.05
2023-02-13T09:46:23.268Z,27.63
2023-02-13T09:48:56.564Z,26.98
2023-02-13T09:51:26.043Z,27.23
2023-02-13T09:53:54.919Z,24.95
2023-02-13T09:56:50.198Z,24.10
2023-02-13T09:59:32.012Z,23.38
2023-02-13T10:02:08.371Z,24.90
2023-02-13T10:04:52.741Z,24.65
2023-02-13T10:07:41.083Z,22.85
2023-02-13T10:10:11.224Z,22.40
2023-02-13T10:13:02.433Z,24.52
2023-02-13T10:15:36.970Z,24.40
2023-02-13T10:18:06.782Z,23.95
2023-02-13T10:20:52.117Z,24.95
2023-02-13T10:23:22.696Z,23.73
2023-02-13T10:26:06.075Z,23.48
2023-02-13T10:28:44.357Z,24.92
2023-02-13T10:31:22.368Z,24.42
2023-02-13T10:33:52.194Z,24.50
2023-02-13T10:36:27.160Z,25.58
2023-02-13T10:39:23.193Z,24.42
2023-02-13T10:42:09.579Z,23.27
2023-02-13T10:45:08.103Z,22.25
2023-02-13T10:47:41.270Z,21.45
2023-02-13T10:50:20.420Z,21.65
2023-02-13T10:53:16.928Z,21.23
2023-02-13T10:56:06.035Z,21.90
2023-02-13T10:58:33.173Z,20.38
2023-02-13T11:01:15.718Z,21.13
2023-02-13T11:03:42.925Z,16.15
2023-02-13T11:06:15.093Z,16.55
2023-02-13T11:08:47.775Z,16.92
2023-02-13T11:11:35.861Z,17.38
2023-02-13T11:14:23.328Z,15.13
2023-02-13T11:16:56.280Z,13.70
2023-02-13T11:19:48.209Z,13.75
2023-02-13T11:22:26.371Z,13.93
2023-02-13T11:24:58.569Z,14.18
2023-02-13T11:27:35.710Z,12.52
2023-02-13T11:30:26.032Z,12.27
2023-02-13T11:33:07.113Z,10.85
2023-02-13T11:35:36.029Z,11.13
2023-02-13T11:38:18.495Z,10.23
2023-02-13T11:40:53.110Z,9.50
2023-02-13T11:43:37.138Z,9.90
2023-02-13T11:46:08.198Z,9.13
2023-02-13T11:48:35.605Z,9.02
2023-02-13T11:51:03.783Z,9.82
2023-02-13T11:53:38.045Z,11.02
2023-02-13T11:56:14.757Z,11.68
2023-02-13T11:58:43.302Z,12.55
2023-02-13T12:01:26.063Z,11.98
2023-02-13T12:04:07.684Z,12.00
2023-02-13T12:06:40.094Z,10.40
2023-02-13T12:09:15.750Z,7.57
2023-02-13T12:11:48.634Z,7.43
2023-02-13T12:14:23.045Z,6.93
2023-02-13T12:17:04.000Z,8.30
2023-02-13T12:19:40.191Z,8.27
2023-02-13T12:22:27.992Z,9.00
2023-02-13T12:25:04.967Z,9.63
2023-02-13T12:27:35.156Z,9.50
2023-02-13T12:30:30.040Z,10.50
2023-02-13T12:33:10.706Z,10.03
2023-02-13T12:35:54.106Z,9.88
2023-02-13T12:38:21.524Z,10.30
2023-02-13T12:40:58.710Z,9.60
2023-02-13T12:43:34.970Z,8.90
2023-02-13T12:46:31.456Z,10.07
2023-02-13T12:49:37.505Z,9.50
2023-02-13T12:52:40.093Z,10.73
2023-02-13T12:55:23.092Z,8.48
2023-02-13T12:58:15.701Z,8.95
2023-02-13T13:00:51.498Z,7.82
2023-02-13T13:03:45.133Z,9.07
2023-02-13T13:06:32.348Z,9.32
2023-02-13T13:09:27.094Z,9.30
2023-02-13T13:12:27.614Z,8.75
2023-02-13T13:15:17.529Z,9.43
2023-02-13T13:18:05.076Z,9.73
2023-02-13T13:20:43.797Z,10.05
2023-02-13T13:23:18.317Z,10.30
2023-02-13T13:26:16.390Z,9.77
2023-02-13T13:28:47.259Z,9.73
2023-02-13T13:31:15.126Z,9.98
2023-02-13T13:33:45.456Z,10.52
2023-02-13T13:36:42.974Z,11.00
2023-02-13T13:39:16.713Z,11.40
2023-02-13T13:42:19.157Z,11.67
2023-02-13T13:45:11.906Z,12.63
2023-02-13T13:48:02.189Z,13.30
2023-02-13T13:50:33.345Z,14.13
2023-02-13T13:53:19.223Z,15.23
2023-02-13T13:56:05.072Z,15.47
2023-02-13T13:58:34.939Z,15.70
2023-02-13T14:01:20.716Z,16.27
2023-02-13T14:03:49.854Z,15.60
2023-02-13T14:06:20.489Z,15.70
2023-02-13T14:08:54.912Z,17.03
2023-02-13T14:11:38.044Z,16.27
2023-02-13T14:14:34.192Z,15.57
2023-02-13T14:17:02.191Z,16.10
2023-02-13T14:19:40.462Z,16.47
2023-02-13T14:22:19.368Z,16.57
2023-02-13T14:24:53.872Z,16.80
2023-02-13T14:27:34.456Z,17.67
2023-02-13T14:30:02.334Z,17.47
2023-02-13T14:32:41.244Z,18.60
2023-02-13T14:35:24.779Z,17.90
2023-02-13T14:38:00.980Z,18.13
2023-02-13T14:40:39.882Z,16.33
2023-02-13T14:43:30.576Z,18.73
2023-02-13T14:46:28.522Z,19.87
2023-02-13T14:49:02.714Z,18.43
2023-02-13T14:51:39.466Z,19.40
2023-02-13T14:54:15.936Z,19.23
2023-02-13T14:56:46.430Z,21.40
2023-02-13T14:59:20.457Z,19.70
2023-02-13T15:02:00.114Z,20.37
2023-02-13T15:04:43.255Z,21.03
2023-02-13T15:07:23.775Z,20.63
2023-02-13T15:09:56.446Z,20.43
2023-02-13T15:12:31.284Z,19.83
2023-02-13T15:15:01.344Z,21.33
2023-02-13T15:17:40.165Z,19.17
2023-02-13T15:20:13.282Z,18.53
2023-02-13T15:22:45.319Z,20.40
2023-02-13T15:25:38.206Z,19.07
2023-02-13T15:28:07.577Z,18.73
2023-02-13T15:30:37.496Z,17.60
2023-02-13T15:33:19.340Z,19.03
2023-02-13T15:35:46.707Z,17.83
2023-02-13T15:38:25.819Z,17.93
2023-02-13T15:40:57.189Z,17.13
2023-02-13T15:43:35.672Z,17.83
2023-02-13T15:46:33.652Z,18.63
2023-02-13T15:49:06.136Z,21.17
2023-02-13T15:51:34.825Z,20.63
2023-02-13T15:54:21.892Z,21.13
2023-02-13T15:56:50.291Z,21.47
2023-02-13T15:59:19.630Z,22.43
2023-02-13T16:01:47.286Z,20.73
2023-02-13T16:04:17.588Z,22.03
2023-02-13T16:06:46.836Z,21.67
2023-02-13T16:09:31.952Z,19.97
2023-02-13T16:12:23.965Z,19.60
2023-02-13T16:15:03.108Z,19.93
2023-02-13T16:17:36.612Z,18.10
2023-02-13T16:20:08.185Z,17.97
2023-02-13T16:22:41.090Z,18.20
2023-02-13T16:25:14.502Z,19.37
2023-02-13T16:27:43.762Z,20.60
2023-02-13T16:30:24.539Z,20.13
2023-02-13T16:32:51.886Z,18.60
2023-02-13T16:35:21.715Z,12.43
2023-02-13T16:37:56.352Z,14.10
2023-02-13T16:40:43.651Z,10.87
2023-02-13T16:43:38.788Z,9.60
2023-02-13T16:46:30.552Z,8.80
2023-02-13T16:48:57.556Z,8.53
2023-02-13T16:51:30.637Z,7.03
2023-02-13T16:54:03.824Z,7.03
2023-02-13T16:56:56.008Z,6.77
2023-02-13T16:59:26.402Z,6.97
2023-02-13T17:02:14.750Z,7.67
2023-02-13T17:05:08.196Z,7.83
2023-02-13T17:07:43.961Z,8.43
2023-02-13T17:10:31.083Z,8.90
2023-02-13T17:13:19.770Z,9.03
2023-02-13T17:15:48.580Z,9.43
2023-02-13T17:18:15.867Z,9.10
2023-02-13T17:20:44.555Z,10.20
2023-02-13T17:23:23.489Z,9.60
2023-02-13T17:25:52.741Z,9.87
2023-02-13T17:28:24.373Z,12.80
2023-02-13T17:30:54.265Z,14.27
2023-02-13T17:33:25.766Z,15.93
2023-02-13T17:35:54.145Z,17.10
2023-02-13T17:38:21.760Z,17.40
2023-02-13T17:40:49.690Z,18.37
2023-02-13T17:43:19.048Z,19.93
2023-02-13T17:45:46.988Z,19.17
2023-02-13T17:48:14.320Z,19.17
2023-02-13T17:50:41.892Z,19.53
2023-02-13T17:53:26.310Z,17.90
2023-02-13T17:55:53.639Z,16.70
2023-02-13T17:58:20.674Z,16.90
2023-02-13T18:00:47.883Z,18.07
2023-02-13T18:03:15.405Z,15.70
2023-02-13T18:05:42.546Z,17.07
2023-02-13T18:08:09.770Z,14.37
2023-02-13T18:10:39.558Z,13.47
2023-02-13T18:13:07.108Z,14.37
2023-02-13T18:15:44.931Z,14.03
2023-02-13T18:18:15.998Z,15.23
2023-02-13T18:20:43.790Z,15.50
2023-02-13T18:23:10.966Z,14.13
2023-02-13T18:25:37.967Z,15.03
2023-02-13T18:28:05.056Z,15.80
2023-02-13T18:30:32.336Z,15.40
2023-02-13T18:32:59.473Z,15.47
2023-02-13T18:35:27.172Z,15.80
2023-02-13T18:37:54.373Z,15.37
2023-02-13T18:40:21.708Z,13.90
2023-02-13T18:42:51.074Z,15.10
2023-02-13T18:45:18.538Z,14.70
2023-02-13T18:47:45.664Z,14.50
2023-02-13T18:50:13.658Z,14.30
2023-02-13T18:52:40.979Z,14.33
2023-02-13T18:55:08.422Z,14.07
2023-02-13T18:57:35.587Z,13.73
2023-02-13T19:00:04.957Z,13.93
2023-02-13T19:02:33.422Z,14.20
2023-02-13T19:05:01.251Z,14.20
2023-02-13T19:07:28.492Z,14.80
2023-02-13T19:09:55.982Z,14.23
2023-02-13T19:12:23.520Z,14.93
2023-02-13T19:14:50.508Z,14.50
2023-02-13T19:17:17.824Z,14.07
2023-02-13T19:19:46.530Z,14.03
2023-02-13T19:22:15.840Z,13.43
2023-02-13T19:24:43.972Z,13.07
2023-02-13T19:27:11.452Z,13.53
2023-02-13T19:29:38.501Z,14.30
2023-02-13T19:32:05.574Z,14.97
2023-02-13T19:34:32.932Z,14.97
2023-02-13T19:37:00.005Z,14.67
2023-02-13T19:39:27.196Z,14.70
2023-02-13T19:41:54.191Z,14.77
2023-02-13T19:44:21.342Z,14.40
2023-02-13T19:46:48.755Z,15.17
2023-02-13T19:49:16.680Z,15.20
2023-02-13T19:51:46.225Z,15.13
2023-02-13T19:54:13.549Z,15.83
2023-02-13T19:56:41.128Z,16.53
2023-02-13T19:59:12.292Z,15.93
2023-02-13T20:01:43.031Z,16.50
2023-02-13T20:04:11.890Z,16.53
2023-02-13T20:06:39.159Z,17.80
2023-02-13T20:09:12.902Z,17.37
2023-02-13T20:11:41.542Z,17.77
2023-02-13T20:14:11.636Z,18.97
2023-02-13T20:16:39.398Z,17.27
2023-02-13T20:19:09.675Z,17.43
2023-02-13T20:21:37.299Z,18.73
2023-02-13T20:24:05.283Z,19.40
2023-02-13T20:26:33.061Z,18.27
2023-02-13T20:29:00.761Z,20.23
2023-02-13T20:31:33.694Z,20.40
2023-02-13T20:34:01.182Z,20.13
2023-02-13T20:36:31.337Z,21.37
2023-02-13T20:39:00.993Z,19.20
2023-02-13T20:41:31.421Z,20.60
2023-02-13T20:44:00.452Z,20.10
2023-02-13T20:46:31.000Z,21.53
2023-02-13T20:48:58.347Z,20.97
2023-02-13T20:51:25.435Z,21.17
2023-02-13T20:53:52.686Z,21.70
2023-02-13T20:56:22.108Z,22.50
2023-02-13T20:58:50.769Z,22.17
2023-02-13T21:01:28.191Z,22.20
2023-02-13T21:03:56.422Z,23.60
2023-02-13T21:06:26.616Z,23.13
2023-02-13T21:08:54.391Z,22.83
2023-02-13T21:11:22.310Z,24.40
2023-02-13T21:13:50.076Z,23.43
2023-02-13T21:16:22.420Z,22.73
2023-02-13T21:18:51.594Z,22.73
2023-02-13T21:21:20.206Z,22.87
2023-02-13T21:23:47.358Z,24.20
2023-02-13T21:26:16.646Z,24.37
2023-02-13T21:28:48.788Z,24.70
2023-02-13T21:31:21.308Z,25.63
2023-02-13T21:33:48.559Z,24.53
2023-02-13T21:36:15.704Z,26.57
2023-02-13T21:38:42.763Z,26.33
2023-02-13T21:41:18.208Z,26.30
2023-02-13T21:43:48.473Z,25.43
2023-02-13T21:46:30.167Z,26.97
2023-02-13T21:49:02.913Z,27.10
2023-02-13T21:51:31.995Z,26.03
2023-02-13T21:53:59.665Z,27.77
2023-02-13T21:56:29.758Z,28.37
2023-02-13T21:58:58.070Z,26.73
2023-02-13T22:01:28.098Z,26.77
2023-02-13T22:04:01.278Z,26.13
2023-02-13T22:06:30.522Z,25.67
2023-02-13T22:08:59.593Z,26.53
2023-02-13T22:11:27.164Z,27.53
2023-02-13T22:14:00.162Z,27.53
2023-02-13T22:16:27.598Z,28.37
2023-02-13T22:18:54.896Z,28.20
2023-02-13T22:21:24.050Z,28.63
2023-02-13T22:23:51.647Z,28.80
2023-02-13T22:26:20.199Z,28.83
2023-02-13T22:28:47.826Z,30.17
2023-02-13T22:31:16.106Z,30.30
2023-02-13T22:33:47.517Z,28.80
2023-02-13T22:36:18.150Z,28.67
2023-02-13T22:38:45.431Z,30.03
2023-02-13T22:41:18.911Z,29.43
2023-02-13T22:43:45.992Z,30.63
2023-02-13T22:46:15.032Z,28.47
2023-02-13T22:48:46.073Z,29.47
2023-02-13T22:51:16.420Z,27.67
2023-02-13T22:53:45.940Z,28.63
2023-02-13T22:56:12.916Z,28.40
2023-02-13T22:58:40.266Z,28.23
2023-02-13T23:01:16.175Z,29.00
2023-02-13T23:03:43.676Z,27.50
2023-02-13T23:06:12.739Z,28.00
2023-02-13T23:08:40.729Z,27.63
2023-02-13T23:11:32.788Z,27.83
2023-02-13T23:13:59.943Z,28.73
2023-02-13T23:16:27.783Z,28.83
2023-02-13T23:18:58.303Z,27.57
2023-02-13T23:21:26.084Z,28.43
2023-02-13T23:23:53.196Z,28.53
2023-02-13T23:26:20.257Z,30.53
2023-02-13T23:28:47.479Z,29.03
2023-02-13T23:31:14.634Z,29.60
2023-02-13T23:33:41.801Z,30.87
2023-02-13T23:36:08.988Z,29.43
2023-02-13T23:38:36.087Z,28.67
2023-02-13T23:41:10.154Z,29.77
2023-02-13T23:43:37.284Z,30.90
2023-02-13T23:46:05.818Z,29.97
2023-02-13T23:48:33.502Z,29.43
2023-02-13T23:51:01.426Z,29.83
2023-02-13T23:53:28.853Z,29.83
2023-02-13T23:55:56.072Z,30.13
2023-02-13T23:58:23.278Z,29.67
